Time;durP1;ratioP1;P1;durP2;ratioP2;P2;SDS_P1;SDS_P2;PMS_P1;PMS_P2;Temp;Humidity;BMP_temperature;BMP_pressure;BME280_temperature;BME280_humidity;BME280_pressure;Samples;Min_cycle;Max_cycle;Signal;HPM_P1;HPM_P2
2022/08/23 00:04:55;;;;;;;4.43;2.45;;;20.30;89.80;;;;;;10501793;28;20048;-75
2022/08/23 00:09:57;;;;;;;6.10;2.92;;;20.30;91.30;;;;;;10525462;28;20055;-78
2022/08/23 00:14:59;;;;;;;5.53;3.00;;;20.40;91.30;;;;;;10526698;28;20399;-79
2022/08/23 00:20:04;;;;;;;5.50;3.03;;;20.40;91.70;;;;;;10497296;28;20052;-77
2022/08/23 00:25:09;;;;;;;7.13;3.20;;;20.20;91.70;;;;;;10508090;28;20040;-77
2022/08/23 00:30:13;;;;;;;6.47;2.90;;;19.80;92.40;;;;;;10500480;28;20059;-74
2022/08/23 00:35:18;;;;;;;5.25;2.70;;;19.80;92.70;;;;;;10499752;28;20483;-76
2022/08/23 00:40:20;;;;;;;6.57;3.30;;;19.90;92.80;;;;;;10499410;28;20114;-77
2022/08/23 00:50:54;;;;;;;5.82;3.13;;;19.90;93.20;;;;;;10499826;28;20486;-79
2022/08/23 00:56:02;;;;;;;8.07;3.10;;;19.70;93.20;;;;;;10526057;28;20067;-76
2022/08/23 01:01:06;;;;;;;5.60;3.22;;;19.20;93.90;;;;;;10521157;28;20067;-78
2022/08/23 01:06:15;;;;;;;8.35;3.30;;;19.10;94.50;;;;;;10532077;28;20490;-78
2022/08/23 01:11:24;;;;;;;6.57;3.20;;;19.10;94.80;;;;;;10497860;28;20061;-78
2022/08/23 01:16:32;;;;;;;;;;;18.80;94.60;;;;;;10498246;28;20075;-79
2022/08/23 01:21:39;;;;;;;;;;;19.00;93.90;;;;;;10538598;28;19980;-77
2022/08/23 01:26:43;;;;;;;5.88;2.80;;;19.10;94.20;;;;;;10528721;28;19927;-76
2022/08/23 01:31:45;;;;;;;5.60;2.85;;;19.20;94.40;;;;;;10551205;28;20060;-77
2022/08/23 01:36:47;;;;;;;7.82;2.97;;;19.30;94.50;;;;;;10521911;28;20056;-77
2022/08/23 01:41:51;;;;;;;5.90;3.08;;;19.20;94.70;;;;;;10517337;28;20051;-78
2022/08/23 01:46:53;;;;;;;5.68;3.10;;;19.00;95.10;;;;;;10540058;28;20075;-77
2022/08/23 01:51:56;;;;;;;6.47;3.08;;;19.00;95.40;;;;;;10509119;28;20486;-79
2022/08/23 01:56:59;;;;;;;6.80;3.33;;;19.00;95.50;;;;;;10530743;28;20062;-76
2022/08/23 02:02:02;;;;;;;5.40;2.88;;;18.80;95.80;;;;;;10497879;28;20050;-76
2022/08/23 02:07:04;;;;;;;6.68;2.90;;;18.80;96.00;;;;;;10497615;28;20403;-77
2022/08/23 02:12:07;;;;;;;5.95;2.80;;;18.60;96.20;;;;;;10499818;28;20478;-78
2022/08/23 02:17:10;;;;;;;6.28;3.10;;;18.60;96.50;;;;;;10524358;28;20047;-76
2022/08/23 02:22:13;;;;;;;6.50;3.08;;;18.60;96.40;;;;;;10561930;28;20056;-79
2022/08/23 02:27:17;;;;;;;4.93;2.78;;;18.20;96.80;;;;;;10529586;28;20056;-79
2022/08/23 02:32:19;;;;;;;5.78;3.00;;;18.00;97.40;;;;;;10505559;28;20063;-76
2022/08/23 02:37:21;;;;;;;5.80;2.78;;;18.00;97.60;;;;;;10505354;28;20045;-77
2022/08/23 02:42:25;;;;;;;5.85;3.30;;;18.10;97.40;;;;;;10507551;28;20048;-75
2022/08/23 02:47:27;;;;;;;6.85;3.47;;;17.80;97.70;;;;;;10512222;28;20049;-76
2022/08/23 02:52:29;;;;;;;6.30;3.40;;;17.50;98.00;;;;;;10506747;28;20049;-78
2022/08/23 02:57:32;;;;;;;6.43;3.60;;;17.60;98.20;;;;;;10504018;28;20044;-77
2022/08/23 03:02:34;;;;;;;6.82;3.75;;;17.60;98.30;;;;;;10526736;28;20040;-80
2022/08/23 03:07:37;;;;;;;6.35;3.92;;;17.70;98.20;;;;;;10544875;28;20044;-77
2022/08/23 03:12:40;;;;;;;6.25;3.60;;;17.80;98.30;;;;;;10505469;28;20067;-76
2022/08/23 03:17:42;;;;;;;5.25;3.30;;;17.60;98.50;;;;;;10528996;28;20075;-78
2022/08/23 03:22:44;;;;;;;7.07;3.08;;;17.50;98.60;;;;;;10543544;28;20394;-78
2022/08/23 03:27:48;;;;;;;6.28;3.30;;;17.70;98.60;;;;;;10517856;28;20044;-77
2022/08/23 03:32:50;;;;;;;6.50;3.60;;;17.70;98.90;;;;;;10517449;28;20437;-78
2022/08/23 03:37:52;;;;;;;5.88;3.20;;;17.60;99.10;;;;;;10503210;28;20048;-79
2022/08/23 03:42:56;;;;;;;7.32;3.47;;;17.60;99.10;;;;;;10506494;28;20136;-77
2022/08/23 03:47:58;;;;;;;5.20;3.35;;;17.50;99.20;;;;;;10504816;28;20059;-78
2022/08/23 03:53:01;;;;;;;5.78;3.10;;;17.50;99.00;;;;;;10506173;28;20051;-78
2022/08/23 03:58:04;;;;;;;5.40;2.90;;;17.60;98.80;;;;;;10543733;28;20071;-79
2022/08/23 04:03:06;;;;;;;7.95;3.67;;;17.20;98.90;;;;;;10507037;28;20044;-77
2022/08/23 04:08:10;;;;;;;4.97;3.13;;;16.70;99.50;;;;;;10512341;28;20486;-77
2022/08/23 04:13:13;;;;;;;7.40;3.13;;;16.70;99.70;;;;;;10499716;28;20045;-77
2022/08/23 04:18:16;;;;;;;6.15;3.17;;;16.90;99.70;;;;;;10511609;28;20390;-77
2022/08/23 04:23:18;;;;;;;6.10;3.00;;;17.00;99.60;;;;;;10530070;28;20372;-77
2022/08/23 04:28:22;;;;;;;7.45;3.20;;;17.00;99.60;;;;;;10514143;28;20044;-77
2022/08/23 04:33:24;;;;;;;5.07;3.08;;;17.10;99.70;;;;;;10528020;28;20408;-76
2022/08/23 04:38:27;;;;;;;6.55;3.20;;;17.20;99.60;;;;;;10520395;28;20055;-77
2022/08/23 04:43:30;;;;;;;5.72;3.38;;;17.20;99.60;;;;;;10500330;28;20056;-76
2022/08/23 04:48:34;;;;;;;8.05;3.30;;;17.20;99.50;;;;;;10530476;28;20047;-77
2022/08/23 04:53:36;;;;;;;6.38;3.20;;;17.10;99.50;;;;;;10540457;28;20505;-79
2022/08/23 04:58:40;;;;;;;7.53;3.38;;;17.10;99.80;;;;;;10541187;28;20044;-76
2022/08/23 05:03:43;;;;;;;5.40;2.90;;;17.00;99.30;;;;;;10506669;28;20048;-77
2022/08/23 05:08:45;;;;;;;6.10;3.40;;;16.80;99.80;;;;;;10499955;28;20059;-77
2022/08/23 05:13:49;;;;;;;6.32;3.45;;;16.60;99.90;;;;;;10524942;28;20137;-77
2022/08/23 05:18:51;;;;;;;6.00;3.13;;;16.60;99.90;;;;;;10540658;28;20512;-78
2022/08/23 05:23:53;;;;;;;5.25;3.33;;;16.70;99.90;;;;;;10535463;28;20048;-76
2022/08/23 05:28:57;;;;;;;6.18;3.17;;;16.90;99.90;;;;;;10546290;28;20048;-78
2022/08/23 05:33:59;;;;;;;5.88;3.50;;;17.00;99.90;;;;;;10540574;28;20398;-77
2022/08/23 05:39:01;;;;;;;7.13;3.90;;;17.20;99.90;;;;;;10497678;28;20052;-78
2022/08/23 05:44:04;;;;;;;6.45;3.75;;;17.20;99.90;;;;;;10499770;28;20044;-75
2022/08/23 05:49:06;;;;;;;5.78;3.15;;;17.30;99.90;;;;;;10508203;28;20048;-76
2022/08/23 05:54:09;;;;;;;5.95;3.60;;;17.20;99.90;;;;;;10547975;28;20040;-78
2022/08/23 05:59:16;;;;;;;7.97;3.50;;;17.30;99.90;;;;;;10512663;28;20045;-78
2022/08/23 06:04:18;;;;;;;7.57;3.83;;;17.40;99.90;;;;;;10498753;28;20048;-78
2022/08/23 06:09:20;;;;;;;7.18;3.70;;;17.40;99.90;;;;;;10497570;28;20445;-77
2022/08/23 06:14:23;;;;;;;5.80;3.25;;;17.50;99.70;;;;;;10498838;28;20045;-77
2022/08/23 06:19:25;;;;;;;6.07;3.72;;;17.70;99.90;;;;;;10535126;28;20478;-76
2022/08/23 06:24:28;;;;;;;6.63;3.22;;;17.70;99.90;;;;;;10543009;28;20048;-77
2022/08/23 06:29:31;;;;;;;5.85;3.65;;;17.70;99.10;;;;;;10503159;28;20053;-79
2022/08/23 06:34:36;;;;;;;5.68;3.47;;;17.80;99.90;;;;;;10497814;28;20128;-79
2022/08/23 06:39:39;;;;;;;6.57;3.85;;;17.90;99.80;;;;;;10497279;28;20060;-77
2022/08/23 06:44:42;;;;;;;6.50;3.80;;;18.00;99.90;;;;;;10507240;28;20489;-75
2022/08/23 06:49:45;;;;;;;6.85;3.50;;;18.10;99.60;;;;;;10503375;28;20409;-76
2022/08/23 06:54:47;;;;;;;7.43;3.92;;;18.20;99.60;;;;;;10495411;28;20079;-76
2022/08/23 06:59:50;;;;;;;8.32;3.80;;;18.40;99.20;;;;;;10494597;28;20048;-76
2022/08/23 07:04:54;;;;;;;7.93;3.83;;;18.60;99.20;;;;;;10497370;28;20398;-73
2022/08/23 07:09:56;;;;;;;7.35;3.40;;;18.70;98.90;;;;;;10498412;28;20060;-79
2022/08/23 07:14:59;;;;;;;5.55;3.05;;;18.80;98.50;;;;;;10525266;28;20048;-76
2022/08/23 07:20:01;;;;;;;7.75;3.20;;;18.70;98.60;;;;;;10499037;28;20497;-78
2022/08/23 07:25:05;;;;;;;5.03;3.03;;;18.90;98.50;;;;;;10497191;28;20056;-77
2022/08/23 07:30:09;;;;;;;6.57;2.83;;;19.00;97.90;;;;;;10495685;28;20048;-77
2022/08/23 07:35:13;;;;;;;7.07;3.05;;;19.20;98.00;;;;;;10499352;28;20102;-74
2022/08/23 07:40:18;;;;;;;4.75;2.80;;;19.40;98.10;;;;;;10511733;28;20060;-77
2022/08/23 07:45:21;;;;;;;6.25;2.95;;;19.50;98.10;;;;;;10536602;28;20095;-77
2022/08/23 07:50:23;;;;;;;5.07;3.00;;;19.60;97.90;;;;;;10536694;28;20059;-76
2022/08/23 07:55:25;;;;;;;10.13;3.20;;;19.70;97.30;;;;;;10529952;28;20513;-76
2022/08/23 08:00:29;;;;;;;6.25;3.00;;;19.80;97.20;;;;;;10495444;28;20075;-78
2022/08/23 08:05:32;;;;;;;6.47;3.40;;;19.90;96.90;;;;;;10493637;28;20491;-74
2022/08/23 08:10:37;;;;;;;6.53;3.13;;;19.90;97.00;;;;;;10507291;28;20048;-76
2022/08/23 08:15:42;;;;;;;6.85;3.10;;;19.90;96.70;;;;;;10495636;28;20067;-75
2022/08/23 08:20:44;;;;;;;4.82;2.95;;;20.10;96.30;;;;;;10495345;28;20114;-76
2022/08/23 08:25:46;;;;;;;7.68;2.95;;;20.30;96.10;;;;;;10519585;28;20047;-76
2022/08/23 08:30:50;;;;;;;6.25;2.78;;;20.40;96.10;;;;;;10534508;28;20055;-75
2022/08/23 08:35:53;;;;;;;8.07;2.90;;;20.50;95.80;;;;;;10534695;28;20521;-74
2022/08/23 08:41:08;;;;;;;6.55;3.00;;;20.60;95.40;;;;;;10535559;28;20689;-76
2022/08/23 08:46:19;;;;;;;6.18;2.58;;;20.90;94.90;;;;;;10535590;28;20059;-74
2022/08/23 08:51:40;;;;;;;7.28;2.70;;;21.00;95.00;;;;;;10535217;28;20437;-75
2022/08/23 08:56:46;;;;;;;6.18;2.60;;;21.10;93.50;;;;;;10535632;28;20101;-75
2022/08/23 09:01:50;;;;;;;6.00;2.80;;;21.20;92.10;;;;;;10507818;28;20040;-75
2022/08/23 09:07:13;;;;;;;5.88;2.55;;;21.30;92.00;;;;;;10492492;28;20045;-77
2022/08/23 09:12:27;;;;;;;6.88;2.80;;;21.50;93.30;;;;;;10494250;28;20079;-75
2022/08/23 09:17:41;;;;;;;5.72;2.45;;;21.60;92.20;;;;;;10523892;28;20410;-77
2022/08/23 09:22:47;;;;;;;6.70;2.40;;;21.70;92.40;;;;;;10492376;28;20490;-75
2022/08/23 09:27:49;;;;;;;4.70;2.58;;;21.90;92.40;;;;;;10494593;28;20064;-78
2022/08/23 09:32:54;;;;;;;9.77;4.38;;;22.10;91.30;;;;;;10518220;28;20062;-74
2022/08/23 09:38:02;;;;;;;4.50;2.53;;;22.20;91.50;;;;;;10536678;28;20052;-74
2022/08/23 09:43:16;;;;;;;4.40;2.40;;;22.30;91.70;;;;;;10525905;28;20583;-74
2022/08/23 09:48:39;;;;;;;6.95;2.85;;;22.50;91.60;;;;;;10494658;28;20052;-74
2022/08/23 09:53:48;;;;;;;5.78;2.53;;;22.60;91.00;;;;;;10532708;28;20127;-75
2022/08/23 09:58:52;;;;;;;8.45;2.78;;;22.70;90.60;;;;;;10507942;28;20052;-75
2022/08/23 10:04:13;;;;;;;5.35;2.33;;;22.70;90.20;;;;;;10496022;28;20051;-75
2022/08/23 10:09:25;;;;;;;6.90;2.53;;;22.80;90.40;;;;;;10509021;28;20613;-77
2022/08/23 10:14:31;;;;;;;6.07;2.25;;;22.90;88.80;;;;;;10504430;28;20049;-74
2022/08/23 10:19:44;;;;;;;6.25;2.10;;;23.00;87.80;;;;;;10500945;28;20041;-75
2022/08/23 10:24:50;;;;;;;5.32;2.40;;;23.10;80.90;;;;;;10505497;28;20056;-73
2022/08/23 10:29:58;;;;;;;5.07;2.05;;;23.20;82.60;;;;;;10533467;28;20527;-74
2022/08/23 10:35:21;;;;;;;6.82;2.30;;;23.40;78.50;;;;;;10540105;28;20044;-74
2022/08/23 10:40:29;;;;;;;5.47;2.38;;;23.40;80.60;;;;;;10520968;28;20053;-74
2022/08/23 10:45:35;;;;;;;5.47;1.88;;;23.70;76.60;;;;;;10500204;28;20052;-74
2022/08/23 10:50:45;;;;;;;6.22;2.13;;;23.60;77.80;;;;;;10500013;28;20055;-73
2022/08/23 10:56:01;;;;;;;4.70;2.10;;;23.70;75.20;;;;;;10499456;28;20051;-74
2022/08/23 11:01:04;;;;;;;4.10;1.90;;;23.80;73.40;;;;;;10499362;28;20040;-74
2022/08/23 11:06:43;;;;;;;7.03;1.90;;;23.90;73.60;;;;;;10499741;28;20052;-76
2022/08/23 11:11:49;;;;;;;5.30;2.10;;;24.00;73.10;;;;;;10541030;28;20535;-74
2022/08/23 11:16:58;;;;;;;5.93;2.03;;;24.00;71.80;;;;;;10540453;28;20052;-72
2022/08/23 11:22:18;;;;;;;5.40;2.03;;;24.20;71.50;;;;;;10538874;28;20071;-75
2022/08/23 11:27:33;;;;;;;5.20;2.03;;;24.20;68.20;;;;;;10540284;28;20130;-75
2022/08/23 11:32:44;;;;;;;5.80;1.92;;;24.50;71.10;;;;;;10539030;28;20048;-73
2022/08/23 11:37:57;;;;;;;5.40;2.30;;;24.70;70.10;;;;;;10538637;28;20561;-74
2022/08/23 11:43:06;;;;;;;5.68;2.00;;;24.70;69.50;;;;;;10535930;28;20071;-75
2022/08/23 11:48:19;;;;;;;40.53;23.80;;;24.70;69.00;;;;;;10538468;28;20489;-74
2022/08/23 11:53:50;;;;;;;7.93;3.55;;;24.80;68.40;;;;;;10539664;28;20086;-78
2022/08/23 11:59:15;;;;;;;4.47;2.00;;;24.90;68.40;;;;;;10526498;28;20056;-75
2022/08/23 12:04:33;;;;;;;5.13;2.40;;;25.10;66.10;;;;;;10523680;28;20038;-75
2022/08/23 12:09:56;;;;;;;4.30;2.05;;;25.20;66.90;;;;;;10523695;28;20055;-74
2022/08/23 12:15:00;;;;;;;5.60;2.10;;;25.40;67.10;;;;;;10559886;28;20048;-75
2022/08/23 12:20:13;;;;;;;6.13;2.17;;;25.60;64.40;;;;;;10573476;28;20048;-74
2022/08/23 12:25:20;;;;;;;5.63;2.53;;;25.90;62.90;;;;;;10538167;28;20097;-73
2022/08/23 12:30:26;;;;;;;4.18;1.70;;;26.10;63.90;;;;;;10499872;28;20445;-73
2022/08/23 12:35:40;;;;;;;7.30;1.90;;;26.40;60.90;;;;;;10522384;28;20047;-75
2022/08/23 12:40:48;;;;;;;5.75;1.80;;;26.40;60.90;;;;;;10536449;28;20106;-73
2022/08/23 12:45:55;;;;;;;4.13;1.92;;;26.60;60.40;;;;;;10541474;28;20044;-75
2022/08/23 12:51:01;;;;;;;3.20;1.80;;;26.90;58.20;;;;;;10537606;28;20055;-74
2022/08/23 12:56:08;;;;;;;5.40;2.00;;;27.00;57.30;;;;;;10534142;28;20052;-76
2022/08/23 13:01:23;;;;;;;4.57;1.77;;;27.10;55.40;;;;;;10535574;28;20048;-75
2022/08/23 13:06:32;;;;;;;3.70;1.90;;;27.30;55.10;;;;;;10532813;28;21649;-75
2022/08/23 13:11:37;;;;;;;4.35;1.80;;;27.60;56.30;;;;;;10535750;28;20064;-75
2022/08/23 13:16:44;;;;;;;4.40;1.90;;;27.80;56.80;;;;;;10535317;28;20044;-75
2022/08/23 13:21:46;;;;;;;4.20;1.95;;;28.00;55.80;;;;;;10517371;28;20063;-74
2022/08/23 13:26:50;;;;;;;5.05;1.80;;;28.10;57.50;;;;;;10530371;28;20055;-74
2022/08/23 13:31:59;;;;;;;5.47;1.98;;;28.30;55.10;;;;;;10498420;28;20581;-74
2022/08/23 13:37:04;;;;;;;5.18;2.40;;;28.40;56.40;;;;;;10491906;28;20068;-74
2022/08/23 13:42:10;;;;;;;5.18;2.10;;;28.70;58.50;;;;;;10493022;28;20079;-76
2022/08/23 13:47:25;;;;;;;5.20;1.95;;;29.00;55.80;;;;;;10492518;28;20045;-74
2022/08/23 13:52:27;;;;;;;4.95;1.83;;;29.10;53.90;;;;;;10520636;28;20044;-73
2022/08/23 13:57:35;;;;;;;5.60;1.98;;;29.30;55.10;;;;;;10534341;28;20473;-76
2022/08/23 14:02:39;;;;;;;4.38;1.80;;;29.60;55.70;;;;;;10535589;28;20108;-74
2022/08/23 14:07:41;;;;;;;4.35;1.95;;;29.90;55.80;;;;;;10532299;28;20454;-75
2022/08/23 14:12:45;;;;;;;4.45;1.80;;;30.00;53.60;;;;;;10539819;28;20052;-75
2022/08/23 14:17:52;;;;;;;5.75;1.65;;;30.30;54.80;;;;;;10502020;28;20056;-74
2022/08/23 14:22:54;;;;;;;3.70;1.70;;;30.50;50.60;;;;;;10498919;28;20666;-76
2022/08/23 14:27:58;;;;;;;4.85;1.90;;;30.50;54.70;;;;;;10500871;28;20052;-78
2022/08/23 14:33:01;;;;;;;5.32;1.80;;;30.70;51.50;;;;;;10502368;28;20045;-79
2022/08/23 14:38:05;;;;;;;4.38;1.80;;;30.50;49.80;;;;;;10458452;28;20073;-77
2022/08/23 14:43:10;;;;;;;5.25;1.70;;;30.30;49.20;;;;;;10481603;28;20432;-79
2022/08/23 14:48:12;;;;;;;6.18;2.08;;;30.20;51.50;;;;;;10508038;28;20052;-77
2022/08/23 14:53:18;;;;;;;5.78;1.80;;;30.00;49.80;;;;;;10539697;28;20044;-76
2022/08/23 14:58:23;;;;;;;5.22;1.77;;;30.10;49.80;;;;;;10508049;28;20057;-78
2022/08/23 15:03:27;;;;;;;4.25;1.92;;;30.30;51.70;;;;;;10497116;28;20052;-79
2022/08/23 15:08:29;;;;;;;4.40;1.73;;;30.30;49.40;;;;;;10497478;28;20052;-76
2022/08/23 15:13:33;;;;;;;4.55;1.70;;;30.30;49.90;;;;;;10496956;28;20059;-78
2022/08/23 15:18:37;;;;;;;5.43;1.80;;;30.40;51.00;;;;;;10506894;28;20059;-77
2022/08/23 15:23:39;;;;;;;3.63;1.85;;;30.50;50.10;;;;;;10499107;28;20502;-79
2022/08/23 15:28:43;;;;;;;5.30;1.70;;;30.70;50.70;;;;;;10495476;28;20053;-78
2022/08/23 15:33:45;;;;;;;4.32;1.73;;;30.70;48.60;;;;;;10495104;28;20044;-78
2022/08/23 15:38:48;;;;;;;3.17;1.60;;;30.70;49.20;;;;;;10495403;28;20083;-78
2022/08/23 15:43:52;;;;;;;5.45;1.80;;;30.70;48.60;;;;;;10504544;28;20546;-76
2022/08/23 15:49:00;;;;;;;3.55;1.80;;;30.80;48.90;;;;;;10497364;28;20607;-76
2022/08/23 15:54:03;;;;;;;4.97;1.90;;;31.00;49.60;;;;;;10517273;28;20049;-79
2022/08/23 15:59:10;;;;;;;6.32;2.08;;;30.90;48.70;;;;;;10509290;28;20041;-77
2022/08/23 16:04:12;;;;;;;4.32;1.80;;;30.90;49.60;;;;;;10493854;28;20426;-77
2022/08/23 16:09:21;;;;;;;5.05;1.88;;;31.00;49.40;;;;;;10497564;28;20048;-77
2022/08/23 16:14:25;;;;;;;5.18;1.67;;;31.00;50.30;;;;;;10495492;28;20114;-77
2022/08/23 16:19:28;;;;;;;3.33;1.60;;;31.20;49.60;;;;;;10498544;28;20055;-77
2022/08/23 16:24:30;;;;;;;6.25;1.73;;;31.30;48.50;;;;;;10494903;28;20048;-77
2022/08/23 16:29:35;;;;;;;4.95;1.70;;;31.30;49.80;;;;;;10494018;28;20061;-77
2022/08/23 16:34:37;;;;;;;4.45;1.60;;;31.30;49.00;;;;;;10497624;28;20048;-77
2022/08/23 16:39:39;;;;;;;3.45;1.70;;;31.30;47.90;;;;;;10495398;28;20055;-78
2022/08/23 16:44:46;;;;;;;4.20;1.90;;;31.30;49.90;;;;;;10496783;28;20406;-78
2022/08/23 16:49:48;;;;;;;5.85;2.75;;;31.50;47.60;;;;;;10492898;28;20052;-78
2022/08/23 16:54:50;;;;;;;4.13;2.30;;;31.50;47.60;;;;;;10488552;28;20043;-78
2022/08/23 16:59:54;;;;;;;5.38;2.15;;;31.50;49.00;;;;;;10484047;28;20064;-78
2022/08/23 17:04:57;;;;;;;4.80;1.90;;;31.40;49.10;;;;;;10488790;28;20159;-81
2022/08/23 17:09:59;;;;;;;3.72;1.70;;;31.50;49.90;;;;;;10488494;28;20055;-78
2022/08/23 17:15:04;;;;;;;3.97;1.80;;;31.50;50.40;;;;;;10472902;28;20055;-80
2022/08/23 17:20:08;;;;;;;5.25;1.85;;;31.50;49.20;;;;;;10466034;28;20076;-81
2022/08/23 17:25:11;;;;;;;5.13;2.00;;;31.50;50.70;;;;;;10471431;28;20125;-78
2022/08/23 17:30:18;;;;;;;3.58;1.90;;;31.50;50.90;;;;;;10495671;28;20068;-80
2022/08/23 17:35:27;;;;;;;5.70;1.95;;;31.40;50.60;;;;;;10493245;28;20098;-81
2022/08/23 17:40:32;;;;;;;4.05;1.90;;;31.40;52.50;;;;;;10490980;28;20056;-81
2022/08/23 17:45:42;;;;;;;4.43;1.80;;;31.30;53.40;;;;;;10495132;28;20052;-80
2022/08/23 17:50:46;;;;;;;4.50;1.80;;;31.20;54.70;;;;;;10501710;28;20053;-80
2022/08/23 17:55:48;;;;;;;4.15;1.95;;;30.90;55.80;;;;;;10491018;28;20044;-78
2022/08/23 18:00:51;;;;;;;8.73;4.15;;;30.60;57.00;;;;;;10492860;28;20060;-82
2022/08/23 18:05:54;;;;;;;5.57;1.85;;;30.40;58.20;;;;;;10489917;28;20505;-76
2022/08/23 18:10:56;;;;;;;5.88;1.90;;;30.00;58.10;;;;;;10489618;28;20044;-77
2022/08/23 18:16:01;;;;;;;3.83;1.85;;;29.80;57.50;;;;;;10510457;28;20131;-81
2022/08/23 18:21:05;;;;;;;3.65;1.83;;;29.40;58.00;;;;;;10494575;28;20509;-78
2022/08/23 18:28:04;;;;;;;4.28;1.90;;;29.20;58.60;;;;;;10499557;28;20053;-79
2022/08/23 18:31:34;;;;;;;8.97;5.60;;;28.90;58.70;;;;;;10503560;28;20084;-78
2022/08/23 18:36:36;;;;;;;6.13;2.60;;;28.70;60.10;;;;;;10505579;28;20056;-78
2022/08/23 18:41:39;;;;;;;5.05;2.47;;;28.60;60.30;;;;;;10490250;28;20052;-77
2022/08/23 18:46:45;;;;;;;4.55;2.28;;;28.40;60.50;;;;;;10493456;28;20048;-77
2022/08/23 18:51:47;;;;;;;5.15;2.33;;;28.00;60.40;;;;;;10484555;28;20060;-76
2022/08/23 18:56:50;;;;;;;6.03;2.03;;;27.70;61.40;;;;;;10495820;28;20486;-77
2022/08/23 19:01:53;;;;;;;4.35;2.10;;;27.40;61.90;;;;;;10496905;28;20402;-77
2022/08/23 19:06:56;;;;;;;6.53;2.50;;;27.20;61.90;;;;;;10495367;28;20052;-78
2022/08/23 19:11:59;;;;;;;6.07;2.20;;;27.00;62.50;;;;;;10491780;28;20056;-77
2022/08/23 19:17:06;;;;;;;5.40;2.30;;;26.80;62.00;;;;;;10496088;28;20044;-77
2022/08/23 19:22:09;;;;;;;6.33;2.83;;;26.60;62.10;;;;;;10509389;28;20076;-77
2022/08/23 19:27:13;;;;;;;4.20;2.58;;;26.50;62.70;;;;;;10496009;28;20052;-76
2022/08/23 19:32:18;;;;;;;5.75;2.40;;;26.50;63.50;;;;;;10497221;28;20074;-77
2022/08/23 19:37:20;;;;;;;4.72;2.67;;;26.30;61.70;;;;;;10496309;28;20049;-76
2022/08/23 19:42:23;;;;;;;5.13;2.30;;;26.10;62.10;;;;;;10496771;28;20108;-77
2022/08/23 19:47:27;;;;;;;5.50;2.40;;;26.00;60.50;;;;;;10496502;28;20055;-76
2022/08/23 19:52:29;;;;;;;5.57;2.80;;;25.80;61.30;;;;;;10497436;28;20132;-76
2022/08/23 19:57:32;;;;;;;6.18;3.10;;;25.80;62.30;;;;;;10495955;28;20387;-76
2022/08/23 20:02:36;;;;;;;5.65;2.60;;;25.70;61.90;;;;;;10496110;28;20055;-77
2022/08/23 20:07:38;;;;;;;5.07;2.53;;;25.60;63.30;;;;;;10493779;28;20068;-78
2022/08/23 20:12:41;;;;;;;6.00;2.42;;;25.50;66.60;;;;;;10510512;28;20052;-77
2022/08/23 20:17:45;;;;;;;6.03;2.20;;;25.00;65.80;;;;;;10532315;28;20048;-75
2022/08/23 20:28:07;;;;;;;4.72;2.40;;;24.50;68.50;;;;;;10509332;28;20040;-75
2022/08/23 20:33:10;;;;;;;6.68;2.67;;;24.20;69.00;;;;;;10521192;28;20040;-78
2022/08/23 20:38:12;;;;;;;6.63;2.78;;;24.00;68.70;;;;;;10499237;28;20434;-76
2022/08/23 20:43:14;;;;;;;7.07;3.28;;;23.80;69.10;;;;;;10499236;28;20049;-77
2022/08/23 20:48:18;;;;;;;6.07;3.20;;;23.80;71.30;;;;;;10527186;28;20048;-79
2022/08/23 20:53:20;;;;;;;5.90;3.00;;;23.80;72.10;;;;;;10507858;28;20088;-77
2022/08/23 20:58:23;;;;;;;5.47;2.90;;;23.70;72.00;;;;;;10498926;28;20506;-76
2022/08/23 21:03:28;;;;;;;4.90;2.75;;;23.70;72.70;;;;;;10507167;28;20049;-76
2022/08/23 21:08:30;;;;;;;5.85;3.00;;;23.80;73.80;;;;;;10530039;28;20044;-76
2022/08/23 21:13:33;;;;;;;6.57;3.05;;;23.80;73.60;;;;;;10508845;28;20049;-79
2022/08/23 21:18:37;;;;;;;5.68;2.58;;;23.20;75.00;;;;;;10518657;28;20071;-75
2022/08/23 21:23:39;;;;;;;6.57;3.03;;;22.80;74.70;;;;;;10499971;28;20048;-78
2022/08/23 21:28:42;;;;;;;8.48;3.33;;;22.80;75.60;;;;;;10498102;28;20048;-76
2022/08/23 21:33:45;;;;;;;5.28;3.08;;;22.80;76.20;;;;;;10497287;28;20056;-78
2022/08/23 21:38:47;;;;;;;8.00;3.40;;;22.80;76.70;;;;;;10497370;28;20056;-76
2022/08/23 21:43:50;;;;;;;5.35;3.05;;;22.80;78.10;;;;;;10492158;28;20060;-76
2022/08/23 21:48:53;;;;;;;6.78;3.45;;;22.90;78.70;;;;;;10465146;28;20073;-78
2022/08/23 21:53:55;;;;;;;5.45;3.25;;;22.70;79.00;;;;;;10497912;28;20548;-76
2022/08/23 21:58:58;;;;;;;5.57;3.10;;;22.70;80.50;;;;;;10524775;28;20049;-76
2022/08/23 22:04:04;;;;;;;5.95;3.15;;;22.50;81.10;;;;;;10496537;28;20049;-76
2022/08/23 22:09:10;;;;;;;6.85;3.85;;;22.40;82.20;;;;;;10496698;28;20047;-77
2022/08/23 22:14:17;;;;;;;6.95;3.60;;;22.40;83.30;;;;;;10497114;28;20044;-79
2022/08/23 22:19:21;;;;;;;7.80;3.30;;;22.30;83.80;;;;;;10496169;28;20053;-77
2022/08/23 22:24:23;;;;;;;5.63;3.58;;;22.20;84.30;;;;;;10497599;28;20052;-75
2022/08/23 22:29:25;;;;;;;8.05;4.40;;;22.10;85.30;;;;;;10517659;28;20051;-74
2022/08/23 22:34:29;;;;;;;8.73;5.50;;;22.00;86.40;;;;;;10527719;28;20044;-77
2022/08/23 22:39:31;;;;;;;5.90;3.55;;;22.00;87.20;;;;;;10504217;28;20418;-79
2022/08/23 22:44:33;;;;;;;6.57;3.40;;;22.00;87.50;;;;;;10517777;28;20612;-78
2022/08/23 22:49:37;;;;;;;6.32;3.28;;;21.80;88.20;;;;;;10503189;28;20055;-80
2022/08/23 22:54:39;;;;;;;5.97;3.60;;;21.50;89.50;;;;;;10536793;28;20059;-78
2022/08/23 22:59:41;;;;;;;6.35;3.70;;;21.40;90.20;;;;;;10546275;28;20490;-77
2022/08/23 23:04:45;;;;;;;6.78;3.55;;;21.50;90.50;;;;;;10508719;28;20044;-76
2022/08/23 23:09:47;;;;;;;6.05;3.63;;;21.60;90.80;;;;;;10504269;28;20048;-76
2022/08/23 23:14:49;;;;;;;6.70;4.13;;;21.30;91.10;;;;;;10503223;28;20045;-78
2022/08/23 23:25:12;;;;;;;7.07;3.85;;;21.30;91.80;;;;;;10503577;28;20052;-77
2022/08/23 23:30:15;;;;;;;6.25;3.33;;;21.00;92.60;;;;;;10502813;28;20044;-76
2022/08/23 23:35:18;;;;;;;5.40;3.30;;;21.00;92.80;;;;;;10503097;28;20076;-78
2022/08/23 23:40:21;;;;;;;8.57;3.70;;;21.10;93.00;;;;;;10502265;28;20056;-77
2022/08/23 23:45:23;;;;;;;6.32;3.60;;;21.10;93.00;;;;;;10502252;28;20398;-76
2022/08/23 23:50:27;;;;;;;6.63;3.53;;;21.00;93.50;;;;;;10502457;28;20055;-77
2022/08/23 23:55:29;;;;;;;5.28;3.25;;;20.80;93.70;;;;;;10501813;28;20044;-78
